Bookmark and Share
Track history (hours):
 

Hiyodori

Last reported at 2014-Apr-17 03:33 UTC. Time now 2014-Apr-17 03:57 UTC.
Position N 34°41' E 135°16'.

Length 88 m; draft 3.6 m.

Type: Cargo ship. MMSI: 431000132.

NotesDate/timePositionNaut miles runAvg speedWind from/ knotsBaromVisibWave heightAir tempDewpointWater temp
2014-Apr-17 03:33N 34°41' E 135°16'0 0.0
2014-Apr-17 02:33N 34°41' E 135°16'0 0.0
2014-Apr-17 01:33N 34°41' E 135°16'0 0.0
2014-Apr-17 00:33N 34°41' E 135°16'0 0.0
2014-Apr-16 23:30N 34°41' E 135°16'4 4.3
2014-Apr-16 22:33N 34°38' E 135°19'0 0.0
2014-Apr-16 21:15N 34°38' E 135°19'0 0.0
2014-Apr-16 20:33N 34°38' E 135°19'0 0.0
2014-Apr-16 17:21N 34°38' E 135°19'0 0.1
2014-Apr-16 16:33N 34°38' E 135°19'0 0.1
2014-Apr-16 15:27N 34°38' E 135°19'0 0.1
2014-Apr-16 14:33N 34°38' E 135°19'0 0.0
2014-Apr-16 13:25N 34°38' E 135°19'910.3
2014-Apr-16 12:33N 34°31' E 135°13'1813.0
2014-Apr-16 11:10N 34°17' E 134°59'812.9
2014-Apr-16 10:33N 34°09' E 134°59'224 8.6
2014-Apr-15 08:34N 34°59' E 139°25'9 9.4
2014-Apr-15 07:34N 35°04' E 139°34'9 9.2
2014-Apr-15 06:34N 35°09' E 139°44'9 8.9
2014-Apr-15 05:33N 35°18' E 139°44'6 3.2
2014-Apr-15 03:34N 35°24' E 139°41'1 0.9
2014-Apr-15 02:34N 35°23' E 139°40'0 0.0
2014-Apr-15 01:32N 35°23' E 139°40'3 3.0
2014-Apr-15 00:34N 35°22' E 139°43'1111.4
2014-Apr-14 23:34N 35°11' E 139°47'1211.8
2014-Apr-14 22:34N 35°01' E 139°38'  
2014-Apr-12 10:16N 34°56' E 139°20'913.1
2014-Apr-12 09:33N 35°01' E 139°30'1313.4
2014-Apr-12 08:33N 35°08' E 139°43'1211.5
2014-Apr-12 07:33N 35°20' E 139°42'4 4.4
2014-Apr-12 06:32N 35°24' E 139°41'0 0.0
2014-Apr-12 05:33N 35°24' E 139°41'0 0.0
2014-Apr-12 04:33N 35°24' E 139°41'1 0.8
2014-Apr-12 03:29N 35°24' E 139°40'4 4.7
2014-Apr-12 02:34N 35°20' E 139°43'1110.9
2014-Apr-12 01:33N 35°09' E 139°46'245 5.9
2014-Apr-10 08:08N 34°04' E 134°60'712.5
2014-Apr-10 07:33N 34°11' E 134°59'1211.7
2014-Apr-10 06:33N 34°23' E 135°02'1211.9
2014-Apr-10 05:33N 34°31' E 135°12'10 9.9
2014-Apr-10 04:33N 34°41' E 135°16'0 0.2
2014-Apr-10 03:33N 34°41' E 135°16'0 0.0
2014-Apr-10 02:33N 34°41' E 135°16'0 0.0
2014-Apr-10 01:33N 34°41' E 135°16'0 0.0
2014-Apr-10 00:33N 34°41' E 135°16'0 0.0
2014-Apr-09 23:33N 34°41' E 135°16'1 0.8
2014-Apr-09 22:33N 34°41' E 135°17'0 0.0
2014-Apr-09 21:33N 34°41' E 135°17'0 0.0
2014-Apr-09 20:33N 34°41' E 135°17'0 0.0
2014-Apr-09 19:33N 34°41' E 135°17'0 0.0
2014-Apr-09 18:33N 34°41' E 135°17'0 0.0
2014-Apr-09 17:33N 34°41' E 135°17'0 0.0
2014-Apr-09 16:33N 34°41' E 135°17'0 0.0
2014-Apr-09 15:33N 34°41' E 135°17'0 0.0
2014-Apr-09 14:33N 34°41' E 135°17'0 0.0
2014-Apr-09 13:33N 34°41' E 135°17'0 0.0
2014-Apr-09 12:33N 34°41' E 135°17'0 0.0
2014-Apr-09 11:33N 34°41' E 135°17'1 0.6
2014-Apr-09 10:33N 34°41' E 135°16'1212.2
2014-Apr-09 09:33N 34°29' E 135°10'1612.8
2014-Apr-09 08:16N 34°16' E 134°59'912.0
2014-Apr-09 07:33N 34°07' E 135°00'205 9.7
2014-Apr-08 10:26N 34°42' E 139°05'1011.6
2014-Apr-08 09:33N 34°50' E 139°13'1111.0
2014-Apr-08 08:33N 34°57' E 139°23'1111.4
2014-Apr-08 07:33N 35°03' E 139°34'1212.0
2014-Apr-08 06:33N 35°11' E 139°45'1111.3
2014-Apr-08 05:33N 35°22' E 139°41'2 1.9
2014-Apr-08 04:33N 35°24' E 139°41'3 3.3
2014-Apr-08 03:33N 35°21' E 139°42'1111.0
2014-Apr-08 02:33N 35°11' E 139°47'1111.0
2014-Apr-08 01:33N 35°02' E 139°39'1311.7
2014-Apr-08 00:27N 34°55' E 139°26'46 6.6
2014-Apr-07 17:33N 35°02' E 138°30'0 0.0
2014-Apr-07 16:33N 35°02' E 138°30'0 0.0
2014-Apr-07 14:31N 35°02' E 138°30'0 0.0
2014-Apr-07 13:33N 35°02' E 138°30'0 0.0
2014-Apr-07 12:33N 35°02' E 138°30'0 0.0
2014-Apr-07 11:33N 35°02' E 138°30'  

Dump ship's entire track history

sailing weather and tide predictions

Hiyodori — JD2366 — position and weather